Ginga Jaguar — 3ECS4 — position and weather

sailwx.info

Track history (hours):
 
Tides and Currents Weather Stations Pressure Air Temp Water Temp Dewpoint Dewpoint Depression Visibility Wind Speed Wind Dir Waves Ship Positions

Ginga Jaguar

Last reported at 2017-Nov-11 12:38 UTC. Time now 2017-Nov-18 22:00 UTC.
Position N 31°06' E 122°26'.

Length 160 m; draft 7 m.

Type: Ship (hazmat cat A). MMSI: 371451000.

Date/timePositionNaut miles runAvg speedWind from/ knotsBaromVisibWave heightAir tempDewpointWater temp
2017-Nov-11 12:38N 31°06' E 122°26'211.8
2017-Nov-11 12:27N 31°06' E 122°24'613.3
2017-Nov-11 11:59N 31°07' E 122°16'612.4
2017-Nov-11 11:29N 31°11' E 122°10'611.8
2017-Nov-11 11:00N 31°14' E 122°05'611.7
2017-Nov-11 10:30N 31°15' E 121°58'510.7
2017-Nov-11 10:00N 31°16' E 121°52'510.4
2017-Nov-11 09:30N 31°18' E 121°46'5 9.3
2017-Nov-11 09:00N 31°20' E 121°41'4 8.2
2017-Nov-11 08:31N 31°22' E 121°37'4 8.6
2017-Nov-11 08:00N 31°24' E 121°33'3 6.4
2017-Nov-11 07:30N 31°26' E 121°30'3 5.9
2017-Nov-11 07:01N 31°28' E 121°27'611.5
2017-Nov-11 06:30N 31°32' E 121°22'713.6
2017-Nov-11 06:01N 31°36' E 121°17'714.7
2017-Nov-11 05:30N 31°41' E 121°10'814.6
2017-Nov-11 04:57N 31°46' E 121°03'2811.5
2017-Nov-11 02:32N 32°00' E 120°34'014.1
2017-Nov-11 02:30N 32°00' E 120°34'713.0
2017-Nov-11 02:00N 32°02' E 120°27'2 0.1
2017-Nov-10 01:55N 32°01' E 120°24'4 9.7
2017-Nov-10 01:29N 32°02' E 120°29'1310.2
2017-Nov-10 00:12N 32°01' E 120°45'210.9
2017-Nov-10 00:00N 32°01' E 120°47'611.5
2017-Nov-09 23:30N 31°57' E 120°52'712.5
2017-Nov-09 22:59N 31°50' E 120°54'610.9
2017-Nov-09 22:28N 31°47' E 120°59'612.6
2017-Nov-09 21:58N 31°45' E 121°06'613.0
2017-Nov-09 21:30N 31°41' E 121°11'612.3
2017-Nov-09 21:00N 31°36' E 121°17'4 7.4
2017-Nov-09 20:30N 31°34' E 121°20'0 0.1
2017-Nov-09 19:58N 31°34' E 121°20'0 0.1
2017-Nov-09 19:25N 31°34' E 121°20'0 0.2
2017-Nov-09 18:49N 31°34' E 121°20'0 0.1
2017-Nov-09 18:28N 31°34' E 121°20'0 0.0
2017-Nov-09 17:58N 31°34' E 121°20'0 0.0
2017-Nov-09 17:25N 31°34' E 121°20'0 0.0
2017-Nov-09 16:58N 31°34' E 121°20'0 0.0
2017-Nov-09 16:28N 31°34' E 121°20'0 0.0
2017-Nov-09 15:58N 31°34' E 121°20'0 0.0
2017-Nov-09 15:22N 31°34' E 121°20'0 0.0
2017-Nov-09 14:55N 31°34' E 121°20'0 0.0
2017-Nov-09 14:25N 31°34' E 121°20'0 0.0
2017-Nov-09 13:58N 31°34' E 121°20'0 0.0
2017-Nov-09 13:25N 31°34' E 121°20'0 0.0
2017-Nov-09 12:55N 31°34' E 121°20'0 0.2
2017-Nov-09 12:28N 31°34' E 121°20'0 0.1
2017-Nov-09 11:58N 31°34' E 121°20'0 0.2
2017-Nov-09 11:28N 31°34' E 121°20'0 0.1
2017-Nov-09 10:52N 31°34' E 121°20'0 0.0
2017-Nov-09 10:28N 31°34' E 121°20'0 0.0
2017-Nov-09 09:58N 31°34' E 121°20'0 0.0
2017-Nov-09 09:28N 31°34' E 121°20'0 0.0
2017-Nov-09 08:58N 31°34' E 121°20'0 0.1
2017-Nov-09 08:31N 31°34' E 121°20'2 3.7
2017-Nov-09 08:01N 31°33' E 121°21'510.2
2017-Nov-09 07:31N 31°30' E 121°26'611.1
2017-Nov-09 07:01N 31°26' E 121°30'5 9.6
2017-Nov-09 06:31N 31°23' E 121°35'611.1
2017-Nov-09 06:01N 31°21' E 121°41'5 9.7
2017-Nov-09 05:30N 31°17' E 121°44'1014.6
2017-Nov-09 04:48N 31°10' E 121°53'414.4
2017-Nov-09 04:30N 31°07' E 121°57'611.4
2017-Nov-09 04:00N 31°05' E 122°03'714.2
2017-Nov-09 03:31N 31°03' E 122°11'5 9.8
2017-Nov-09 03:00N 31°03' E 122°17'4 7.9
2017-Nov-09 02:31N 31°02' E 122°21'4 8.3
2017-Nov-09 02:01N 31°01' E 122°26'4 7.4
2017-Nov-09 01:31N 31°00' E 122°30'  
2017-Nov-05 04:44N 21°34' E 113°30'311.4
2017-Nov-05 04:30N 21°35' E 113°27'1412.2
2017-Nov-05 03:19N 21°45' E 113°15'411.8
2017-Nov-05 03:00N 21°48' E 113°14'510.4
2017-Nov-05 02:30N 21°53' E 113°13'1 1.6
2017-Nov-05 02:00N 21°54' E 113°14'0 0.0
2017-Nov-05 01:30N 21°54' E 113°14'0 0.0
2017-Nov-05 01:00N 21°54' E 113°14'0 0.0
2017-Nov-05 00:30N 21°54' E 113°14'0 0.0
2017-Nov-05 00:00N 21°54' E 113°14'0 0.0
2017-Nov-04 23:30N 21°54' E 113°14'0 0.0
2017-Nov-04 23:00N 21°54' E 113°14'0 0.0
2017-Nov-04 22:30N 21°54' E 113°14'0 0.0
2017-Nov-04 22:00N 21°54' E 113°14'0 0.0
2017-Nov-04 21:27N 21°54' E 113°14'0 0.0
2017-Nov-04 20:57N 21°54' E 113°14'0 0.0
2017-Nov-04 20:24N 21°54' E 113°14'0 0.0
2017-Nov-04 20:00N 21°54' E 113°14'0 0.0
2017-Nov-04 19:18N 21°54' E 113°14'0 0.0
2017-Nov-04 19:00N 21°54' E 113°14'0 0.0
2017-Nov-04 18:30N 21°54' E 113°14'0 0.0
2017-Nov-04 18:00N 21°54' E 113°14'0 0.0
2017-Nov-04 17:30N 21°54' E 113°14'0 0.0
2017-Nov-04 17:00N 21°54' E 113°14'0 0.0
2017-Nov-04 16:30N 21°54' E 113°14'0 0.0
2017-Nov-04 16:00N 21°54' E 113°14'0 0.0
2017-Nov-04 15:30N 21°54' E 113°14'0 0.0
2017-Nov-04 15:00N 21°54' E 113°14'0 0.0
2017-Nov-04 14:30N 21°54' E 113°14'0 0.0
2017-Nov-04 14:00N 21°54' E 113°14'0 0.0
2017-Nov-04 13:30N 21°54' E 113°14'0 0.0
2017-Nov-04 13:00N 21°54' E 113°14'0 0.0
2017-Nov-04 12:24N 21°54' E 113°14'0 0.0
2017-Nov-04 12:00N 21°54' E 113°14'0 0.0
2017-Nov-04 11:30N 21°54' E 113°14'0 0.0
2017-Nov-04 11:00N 21°54' E 113°14'0 0.0
2017-Nov-04 10:30N 21°54' E 113°14'0 0.0
2017-Nov-04 10:00N 21°54' E 113°14'0 0.0
2017-Nov-04 09:30N 21°54' E 113°14'0 0.0
2017-Nov-04 09:00N 21°54' E 113°14'0 0.0
2017-Nov-04 08:30N 21°54' E 113°14'0 0.0
2017-Nov-04 08:00N 21°54' E 113°14'0 0.0
2017-Nov-04 07:27N 21°54' E 113°14'0 0.0
2017-Nov-04 06:57N 21°54' E 113°14'0 0.0
2017-Nov-04 06:30N 21°54' E 113°14'0 0.0
2017-Nov-04 06:00N 21°54' E 113°14'0 0.0
2017-Nov-04 05:30N 21°54' E 113°14'0 0.0
2017-Nov-04 04:57N 21°54' E 113°14'0 0.0
2017-Nov-04 04:30N 21°54' E 113°14'0 0.0
2017-Nov-04 04:00N 21°54' E 113°14'0 0.0
2017-Nov-04 03:24N 21°54' E 113°14'0 1.0
2017-Nov-04 03:00N 21°53' E 113°14'0 0.3
2017-Nov-04 02:26N 21°53' E 113°14'0 0.0
2017-Nov-04 01:59N 21°53' E 113°14'0 0.1
2017-Nov-04 01:29N 21°53' E 113°14'0 0.1
2017-Nov-04 00:59N 21°53' E 113°14'0 0.1
2017-Nov-04 00:29N 21°53' E 113°14'0 0.0
2017-Nov-03 23:59N 21°53' E 113°14'0 0.0
2017-Nov-03 23:29N 21°53' E 113°14'0 0.0
2017-Nov-03 22:59N 21°53' E 113°14'0 0.1
2017-Nov-03 22:29N 21°53' E 113°14'0 0.0
2017-Nov-03 21:59N 21°53' E 113°14'0 0.1
2017-Nov-03 21:29N 21°53' E 113°14'0 0.0
2017-Nov-03 20:59N 21°53' E 113°14'0 0.0
2017-Nov-03 20:29N 21°53' E 113°14'0 0.0
2017-Nov-03 19:59N 21°53' E 113°14'0 0.0
2017-Nov-03 19:29N 21°53' E 113°14'0 0.0
2017-Nov-03 18:59N 21°53' E 113°14'0 0.1
2017-Nov-03 18:29N 21°53' E 113°14'0 0.0
2017-Nov-03 17:59N 21°53' E 113°14'0 0.1
2017-Nov-03 17:29N 21°53' E 113°14'0 0.1
2017-Nov-03 16:59N 21°53' E 113°14'0 0.0
2017-Nov-03 16:29N 21°53' E 113°14'0 0.1
2017-Nov-03 15:59N 21°53' E 113°14'0 0.0
2017-Nov-03 15:29N 21°53' E 113°14'0 0.0
2017-Nov-03 14:59N 21°53' E 113°14'0 0.0
2017-Nov-03 14:29N 21°53' E 113°14'0 0.0
2017-Nov-03 13:56N 21°53' E 113°14'0 0.1
2017-Nov-03 13:29N 21°53' E 113°14'0 0.1
2017-Nov-03 12:53N 21°53' E 113°14'0 0.0
2017-Nov-03 12:23N 21°53' E 113°14'0 0.1
2017-Nov-03 11:47N 21°53' E 113°14'0 0.0
2017-Nov-03 11:29N 21°53' E 113°14'0 0.1
2017-Nov-03 10:59N 21°53' E 113°14'0 0.0
2017-Nov-03 10:29N 21°53' E 113°14'0 0.1
2017-Nov-03 09:59N 21°53' E 113°14'0 0.0
2017-Nov-03 09:29N 21°53' E 113°14'0 0.0
2017-Nov-03 08:59N 21°53' E 113°14'0 0.0
2017-Nov-03 08:29N 21°53' E 113°14'0 0.0
2017-Nov-03 07:59N 21°53' E 113°14'0 0.0
2017-Nov-03 07:29N 21°53' E 113°14'0 0.0
2017-Nov-03 06:59N 21°53' E 113°14'0 0.0
2017-Nov-03 06:29N 21°53' E 113°14'0 0.0
2017-Nov-03 05:59N 21°53' E 113°14'0 0.0
2017-Nov-03 05:29N 21°53' E 113°14'0 0.1
2017-Nov-03 04:59N 21°53' E 113°14'0 0.1
2017-Nov-03 04:29N 21°53' E 113°14'0 0.1
2017-Nov-03 03:59N 21°53' E 113°14'0 0.0
2017-Nov-03 03:29N 21°53' E 113°14'0 0.0
2017-Nov-03 02:59N 21°53' E 113°14'0 0.1
2017-Nov-03 02:29N 21°53' E 113°14'0 0.0
2017-Nov-03 01:59N 21°53' E 113°14'0 0.0
2017-Nov-03 01:29N 21°53' E 113°14'0 0.0
2017-Nov-03 01:00N 21°53' E 113°14'2 3.3
2017-Nov-03 00:30N 21°52' E 113°13'2 4.7
2017-Nov-03 00:00N 21°50' E 113°14'2 3.9
2017-Nov-02 23:30N 21°49' E 113°16'1 1.8
2017-Nov-02 23:00N 21°49' E 113°17'0 0.0
2017-Nov-02 22:30N 21°49' E 113°17'0 0.0
2017-Nov-02 22:00N 21°49' E 113°17'0 0.0
2017-Nov-02 21:30N 21°49' E 113°17'0 0.0
2017-Nov-02 21:00N 21°49' E 113°17'0 0.0
2017-Nov-02 20:30N 21°49' E 113°17'0 0.0
2017-Nov-02 20:00N 21°49' E 113°17'0 0.0
2017-Nov-02 19:30N 21°49' E 113°17'0 0.0
2017-Nov-02 19:00N 21°49' E 113°17'0 0.0
2017-Nov-02 18:30N 21°49' E 113°17'0 0.1
2017-Nov-02 18:00N 21°49' E 113°17'1 2.4
2017-Nov-02 17:30N 21°48' E 113°17'4 7.1
2017-Nov-02 16:58N 21°44' E 113°19'3 6.4
2017-Nov-02 16:29N 21°41' E 113°18'  
Track history (hours):
 
Tides and Currents Weather Stations Pressure Air Temp Water Temp Dewpoint Dewpoint Depression Visibility Wind Speed Wind Dir Waves Ship Positions

Ginga Jaguar

Last reported at 2017-Nov-11 12:38 UTC. Time now 2017-Nov-18 22:00 UTC.
Position N 31°06' E 122°26'.

Length 160 m; draft 7 m.

Type: Ship (hazmat cat A). MMSI: 371451000.

Date/timePositionNaut miles runAvg speedWind from/ knotsBaromVisibWave heightAir tempDewpointWater temp
2017-Nov-11 12:38N 31°06' E 122°26'211.8
2017-Nov-11 12:27N 31°06' E 122°24'613.3
2017-Nov-11 11:59N 31°07' E 122°16'612.4
2017-Nov-11 11:29N 31°11' E 122°10'611.8
2017-Nov-11 11:00N 31°14' E 122°05'611.7
2017-Nov-11 10:30N 31°15' E 121°58'510.7
2017-Nov-11 10:00N 31°16' E 121°52'510.4
2017-Nov-11 09:30N 31°18' E 121°46'5 9.3
2017-Nov-11 09:00N 31°20' E 121°41'4 8.2
2017-Nov-11 08:31N 31°22' E 121°37'4 8.6
2017-Nov-11 08:00N 31°24' E 121°33'3 6.4
2017-Nov-11 07:30N 31°26' E 121°30'3 5.9
2017-Nov-11 07:01N 31°28' E 121°27'611.5
2017-Nov-11 06:30N 31°32' E 121°22'713.6
2017-Nov-11 06:01N 31°36' E 121°17'714.7
2017-Nov-11 05:30N 31°41' E 121°10'814.6
2017-Nov-11 04:57N 31°46' E 121°03'2811.5
2017-Nov-11 02:32N 32°00' E 120°34'014.1
2017-Nov-11 02:30N 32°00' E 120°34'713.0
2017-Nov-11 02:00N 32°02' E 120°27'2 0.1
2017-Nov-10 01:55N 32°01' E 120°24'4 9.7
2017-Nov-10 01:29N 32°02' E 120°29'1310.2
2017-Nov-10 00:12N 32°01' E 120°45'210.9
2017-Nov-10 00:00N 32°01' E 120°47'611.5
2017-Nov-09 23:30N 31°57' E 120°52'712.5
2017-Nov-09 22:59N 31°50' E 120°54'610.9
2017-Nov-09 22:28N 31°47' E 120°59'612.6
2017-Nov-09 21:58N 31°45' E 121°06'613.0
2017-Nov-09 21:30N 31°41' E 121°11'612.3
2017-Nov-09 21:00N 31°36' E 121°17'4 7.4
2017-Nov-09 20:30N 31°34' E 121°20'0 0.1
2017-Nov-09 19:58N 31°34' E 121°20'0 0.1
2017-Nov-09 19:25N 31°34' E 121°20'0 0.2
2017-Nov-09 18:49N 31°34' E 121°20'0 0.1
2017-Nov-09 18:28N 31°34' E 121°20'0 0.0
2017-Nov-09 17:58N 31°34' E 121°20'0 0.0
2017-Nov-09 17:25N 31°34' E 121°20'0 0.0
2017-Nov-09 16:58N 31°34' E 121°20'0 0.0
2017-Nov-09 16:28N 31°34' E 121°20'0 0.0
2017-Nov-09 15:58N 31°34' E 121°20'0 0.0
2017-Nov-09 15:22N 31°34' E 121°20'0 0.0
2017-Nov-09 14:55N 31°34' E 121°20'0 0.0
2017-Nov-09 14:25N 31°34' E 121°20'0 0.0
2017-Nov-09 13:58N 31°34' E 121°20'0 0.0
2017-Nov-09 13:25N 31°34' E 121°20'0 0.0
2017-Nov-09 12:55N 31°34' E 121°20'0 0.2
2017-Nov-09 12:28N 31°34' E 121°20'0 0.1
2017-Nov-09 11:58N 31°34' E 121°20'0 0.2
2017-Nov-09 11:28N 31°34' E 121°20'0 0.1
2017-Nov-09 10:52N 31°34' E 121°20'0 0.0
2017-Nov-09 10:28N 31°34' E 121°20'0 0.0
2017-Nov-09 09:58N 31°34' E 121°20'0 0.0
2017-Nov-09 09:28N 31°34' E 121°20'0 0.0
2017-Nov-09 08:58N 31°34' E 121°20'0 0.1
2017-Nov-09 08:31N 31°34' E 121°20'2 3.7
2017-Nov-09 08:01N 31°33' E 121°21'510.2
2017-Nov-09 07:31N 31°30' E 121°26'611.1
2017-Nov-09 07:01N 31°26' E 121°30'5 9.6
2017-Nov-09 06:31N 31°23' E 121°35'611.1
2017-Nov-09 06:01N 31°21' E 121°41'5 9.7
2017-Nov-09 05:30N 31°17' E 121°44'1014.6
2017-Nov-09 04:48N 31°10' E 121°53'414.4
2017-Nov-09 04:30N 31°07' E 121°57'611.4
2017-Nov-09 04:00N 31°05' E 122°03'714.2
2017-Nov-09 03:31N 31°03' E 122°11'5 9.8
2017-Nov-09 03:00N 31°03' E 122°17'4 7.9
2017-Nov-09 02:31N 31°02' E 122°21'4 8.3
2017-Nov-09 02:01N 31°01' E 122°26'4 7.4
2017-Nov-09 01:31N 31°00' E 122°30'  
2017-Nov-05 04:44N 21°34' E 113°30'311.4
2017-Nov-05 04:30N 21°35' E 113°27'1412.2
2017-Nov-05 03:19N 21°45' E 113°15'411.8
2017-Nov-05 03:00N 21°48' E 113°14'510.4
2017-Nov-05 02:30N 21°53' E 113°13'1 1.6
2017-Nov-05 02:00N 21°54' E 113°14'0 0.0
2017-Nov-05 01:30N 21°54' E 113°14'0 0.0
2017-Nov-05 01:00N 21°54' E 113°14'0 0.0
2017-Nov-05 00:30N 21°54' E 113°14'0 0.0
2017-Nov-05 00:00N 21°54' E 113°14'0 0.0
2017-Nov-04 23:30N 21°54' E 113°14'0 0.0
2017-Nov-04 23:00N 21°54' E 113°14'0 0.0
2017-Nov-04 22:30N 21°54' E 113°14'0 0.0
2017-Nov-04 22:00N 21°54' E 113°14'0 0.0
2017-Nov-04 21:27N 21°54' E 113°14'0 0.0
2017-Nov-04 20:57N 21°54' E 113°14'0 0.0
2017-Nov-04 20:24N 21°54' E 113°14'0 0.0
2017-Nov-04 20:00N 21°54' E 113°14'0 0.0
2017-Nov-04 19:18N 21°54' E 113°14'0 0.0
2017-Nov-04 19:00N 21°54' E 113°14'0 0.0
2017-Nov-04 18:30N 21°54' E 113°14'0 0.0
2017-Nov-04 18:00N 21°54' E 113°14'0 0.0
2017-Nov-04 17:30N 21°54' E 113°14'0 0.0
2017-Nov-04 17:00N 21°54' E 113°14'0 0.0
2017-Nov-04 16:30N 21°54' E 113°14'0 0.0
2017-Nov-04 16:00N 21°54' E 113°14'0 0.0
2017-Nov-04 15:30N 21°54' E 113°14'0 0.0
2017-Nov-04 15:00N 21°54' E 113°14'0 0.0
2017-Nov-04 14:30N 21°54' E 113°14'0 0.0
2017-Nov-04 14:00N 21°54' E 113°14'0 0.0
2017-Nov-04 13:30N 21°54' E 113°14'0 0.0
2017-Nov-04 13:00N 21°54' E 113°14'0 0.0
2017-Nov-04 12:24N 21°54' E 113°14'0 0.0
2017-Nov-04 12:00N 21°54' E 113°14'0 0.0
2017-Nov-04 11:30N 21°54' E 113°14'0 0.0
2017-Nov-04 11:00N 21°54' E 113°14'0 0.0
2017-Nov-04 10:30N 21°54' E 113°14'0 0.0
2017-Nov-04 10:00N 21°54' E 113°14'0 0.0
2017-Nov-04 09:30N 21°54' E 113°14'0 0.0
2017-Nov-04 09:00N 21°54' E 113°14'0 0.0
2017-Nov-04 08:30N 21°54' E 113°14'0 0.0
2017-Nov-04 08:00N 21°54' E 113°14'0 0.0
2017-Nov-04 07:27N 21°54' E 113°14'0 0.0
2017-Nov-04 06:57N 21°54' E 113°14'0 0.0
2017-Nov-04 06:30N 21°54' E 113°14'0 0.0
2017-Nov-04 06:00N 21°54' E 113°14'0 0.0
2017-Nov-04 05:30N 21°54' E 113°14'0 0.0
2017-Nov-04 04:57N 21°54' E 113°14'0 0.0
2017-Nov-04 04:30N 21°54' E 113°14'0 0.0
2017-Nov-04 04:00N 21°54' E 113°14'0 0.0
2017-Nov-04 03:24N 21°54' E 113°14'0 1.0
2017-Nov-04 03:00N 21°53' E 113°14'0 0.3
2017-Nov-04 02:26N 21°53' E 113°14'0 0.0
2017-Nov-04 01:59N 21°53' E 113°14'0 0.1
2017-Nov-04 01:29N 21°53' E 113°14'0 0.1
2017-Nov-04 00:59N 21°53' E 113°14'0 0.1
2017-Nov-04 00:29N 21°53' E 113°14'0 0.0
2017-Nov-03 23:59N 21°53' E 113°14'0 0.0
2017-Nov-03 23:29N 21°53' E 113°14'0 0.0
2017-Nov-03 22:59N 21°53' E 113°14'0 0.1
2017-Nov-03 22:29N 21°53' E 113°14'0 0.0
2017-Nov-03 21:59N 21°53' E 113°14'0 0.1
2017-Nov-03 21:29N 21°53' E 113°14'0 0.0
2017-Nov-03 20:59N 21°53' E 113°14'0 0.0
2017-Nov-03 20:29N 21°53' E 113°14'0 0.0
2017-Nov-03 19:59N 21°53' E 113°14'0 0.0
2017-Nov-03 19:29N 21°53' E 113°14'0 0.0
2017-Nov-03 18:59N 21°53' E 113°14'0 0.1
2017-Nov-03 18:29N 21°53' E 113°14'0 0.0
2017-Nov-03 17:59N 21°53' E 113°14'0 0.1
2017-Nov-03 17:29N 21°53' E 113°14'0 0.1
2017-Nov-03 16:59N 21°53' E 113°14'0 0.0
2017-Nov-03 16:29N 21°53' E 113°14'0 0.1
2017-Nov-03 15:59N 21°53' E 113°14'0 0.0
2017-Nov-03 15:29N 21°53' E 113°14'0 0.0
2017-Nov-03 14:59N 21°53' E 113°14'0 0.0
2017-Nov-03 14:29N 21°53' E 113°14'0 0.0
2017-Nov-03 13:56N 21°53' E 113°14'0 0.1
2017-Nov-03 13:29N 21°53' E 113°14'0 0.1
2017-Nov-03 12:53N 21°53' E 113°14'0 0.0
2017-Nov-03 12:23N 21°53' E 113°14'0 0.1
2017-Nov-03 11:47N 21°53' E 113°14'0 0.0
2017-Nov-03 11:29N 21°53' E 113°14'0 0.1
2017-Nov-03 10:59N 21°53' E 113°14'0 0.0
2017-Nov-03 10:29N 21°53' E 113°14'0 0.1
2017-Nov-03 09:59N 21°53' E 113°14'0 0.0
2017-Nov-03 09:29N 21°53' E 113°14'0 0.0
2017-Nov-03 08:59N 21°53' E 113°14'0 0.0
2017-Nov-03 08:29N 21°53' E 113°14'0 0.0
2017-Nov-03 07:59N 21°53' E 113°14'0 0.0
2017-Nov-03 07:29N 21°53' E 113°14'0 0.0
2017-Nov-03 06:59N 21°53' E 113°14'0 0.0
2017-Nov-03 06:29N 21°53' E 113°14'0 0.0
2017-Nov-03 05:59N 21°53' E 113°14'0 0.0
2017-Nov-03 05:29N 21°53' E 113°14'0 0.1
2017-Nov-03 04:59N 21°53' E 113°14'0 0.1
2017-Nov-03 04:29N 21°53' E 113°14'0 0.1
2017-Nov-03 03:59N 21°53' E 113°14'0 0.0
2017-Nov-03 03:29N 21°53' E 113°14'0 0.0
2017-Nov-03 02:59N 21°53' E 113°14'0 0.1
2017-Nov-03 02:29N 21°53' E 113°14'0 0.0
2017-Nov-03 01:59N 21°53' E 113°14'0 0.0
2017-Nov-03 01:29N 21°53' E 113°14'0 0.0
2017-Nov-03 01:00N 21°53' E 113°14'2 3.3
2017-Nov-03 00:30N 21°52' E 113°13'2 4.7
2017-Nov-03 00:00N 21°50' E 113°14'2 3.9
2017-Nov-02 23:30N 21°49' E 113°16'1 1.8
2017-Nov-02 23:00N 21°49' E 113°17'0 0.0
2017-Nov-02 22:30N 21°49' E 113°17'0 0.0
2017-Nov-02 22:00N 21°49' E 113°17'0 0.0
2017-Nov-02 21:30N 21°49' E 113°17'0 0.0
2017-Nov-02 21:00N 21°49' E 113°17'0 0.0
2017-Nov-02 20:30N 21°49' E 113°17'0 0.0
2017-Nov-02 20:00N 21°49' E 113°17'0 0.0
2017-Nov-02 19:30N 21°49' E 113°17'0 0.0
2017-Nov-02 19:00N 21°49' E 113°17'0 0.0
2017-Nov-02 18:30N 21°49' E 113°17'0 0.1
2017-Nov-02 18:00N 21°49' E 113°17'1 2.4
2017-Nov-02 17:30N 21°48' E 113°17'4 7.1
2017-Nov-02 16:58N 21°44' E 113°19'3 6.4
2017-Nov-02 16:29N 21°41' E 113°18'  

Dump ship's entire track history